sensor_id;sensor_type;location;lat;lon;timestamp;P1;durP1;ratioP1;P2;durP2;ratioP2
42682;SDS011;28293;50.930;3.464;2022-11-21T00:01:57;13.45;;;4.88;;
42682;SDS011;28293;50.930;3.464;2022-11-21T00:04:23;14.90;;;5.25;;
42682;SDS011;28293;50.930;3.464;2022-11-21T00:06:51;12.65;;;4.75;;
42682;SDS011;28293;50.930;3.464;2022-11-21T00:09:17;17.60;;;5.25;;
42682;SDS011;28293;50.930;3.464;2022-11-21T00:11:42;14.70;;;4.90;;
42682;SDS011;28293;50.930;3.464;2022-11-21T00:14:08;10.32;;;4.35;;
42682;SDS011;28293;50.930;3.464;2022-11-21T00:16:34;10.82;;;4.35;;
42682;SDS011;28293;50.930;3.464;2022-11-21T00:18:59;14.75;;;5.32;;
42682;SDS011;28293;50.930;3.464;2022-11-21T00:21:25;11.40;;;3.92;;
42682;SDS011;28293;50.930;3.464;2022-11-21T00:23:51;13.30;;;4.90;;
42682;SDS011;28293;50.930;3.464;2022-11-21T00:26:17;11.23;;;4.45;;
42682;SDS011;28293;50.930;3.464;2022-11-21T00:28:42;12.25;;;4.18;;
42682;SDS011;28293;50.930;3.464;2022-11-21T00:31:16;11.57;;;4.43;;
42682;SDS011;28293;50.930;3.464;2022-11-21T00:33:46;10.50;;;4.75;;
42682;SDS011;28293;50.930;3.464;2022-11-21T00:36:12;12.40;;;3.72;;
42682;SDS011;28293;50.930;3.464;2022-11-21T00:38:37;11.20;;;4.90;;
42682;SDS011;28293;50.930;3.464;2022-11-21T00:41:03;11.32;;;4.63;;
42682;SDS011;28293;50.930;3.464;2022-11-21T00:43:30;22.88;;;5.25;;
42682;SDS011;28293;50.930;3.464;2022-11-21T00:45:56;11.98;;;4.13;;
42682;SDS011;28293;50.930;3.464;2022-11-21T00:48:25;11.65;;;4.57;;
42682;SDS011;28293;50.930;3.464;2022-11-21T00:50:50;12.00;;;4.60;;
42682;SDS011;28293;50.930;3.464;2022-11-21T00:53:16;13.07;;;5.20;;
42682;SDS011;28293;50.930;3.464;2022-11-21T00:55:41;10.88;;;5.03;;
42682;SDS011;28293;50.930;3.464;2022-11-21T00:58:07;15.82;;;5.82;;
42682;SDS011;28293;50.930;3.464;2022-11-21T01:00:33;13.45;;;5.68;;
42682;SDS011;28293;50.930;3.464;2022-11-21T01:02:59;13.02;;;6.18;;
42682;SDS011;28293;50.930;3.464;2022-11-21T01:05:25;11.98;;;7.15;;
42682;SDS011;28293;50.930;3.464;2022-11-21T01:07:50;16.65;;;7.60;;
42682;SDS011;28293;50.930;3.464;2022-11-21T01:10:16;13.00;;;8.10;;
42682;SDS011;28293;50.930;3.464;2022-11-21T01:12:42;13.50;;;8.13;;
42682;SDS011;28293;50.930;3.464;2022-11-21T01:15:08;14.40;;;9.68;;
42682;SDS011;28293;50.930;3.464;2022-11-21T01:17:34;16.45;;;9.13;;
42682;SDS011;28293;50.930;3.464;2022-11-21T01:20:00;15.30;;;8.23;;
42682;SDS011;28293;50.930;3.464;2022-11-21T01:22:25;13.18;;;6.78;;
42682;SDS011;28293;50.930;3.464;2022-11-21T01:24:51;12.45;;;5.80;;
42682;SDS011;28293;50.930;3.464;2022-11-21T01:27:17;10.85;;;5.25;;
42682;SDS011;28293;50.930;3.464;2022-11-21T01:29:42;15.60;;;5.75;;
42682;SDS011;28293;50.930;3.464;2022-11-21T01:32:08;9.45;;;4.55;;
42682;SDS011;28293;50.930;3.464;2022-11-21T01:34:33;13.43;;;4.97;;
42682;SDS011;28293;50.930;3.464;2022-11-21T01:36:59;9.82;;;4.35;;
42682;SDS011;28293;50.930;3.464;2022-11-21T01:39:25;13.82;;;4.10;;
42682;SDS011;28293;50.930;3.464;2022-11-21T01:41:50;12.30;;;4.10;;
42682;SDS011;28293;50.930;3.464;2022-11-21T01:46:50;10.63;;;4.10;;
42682;SDS011;28293;50.930;3.464;2022-11-21T01:49:17;9.85;;;4.60;;
42682;SDS011;28293;50.930;3.464;2022-11-21T01:59:50;8.38;;;3.50;;
42682;SDS011;28293;50.930;3.464;2022-11-21T02:02:38;12.73;;;3.38;;
42682;SDS011;28293;50.930;3.464;2022-11-21T02:05:07;10.50;;;3.95;;
42682;SDS011;28293;50.930;3.464;2022-11-21T02:07:38;9.40;;;3.58;;
42682;SDS011;28293;50.930;3.464;2022-11-21T02:10:06;14.65;;;5.30;;
42682;SDS011;28293;50.930;3.464;2022-11-21T02:12:38;12.32;;;4.30;;
42682;SDS011;28293;50.930;3.464;2022-11-21T02:15:09;11.13;;;4.00;;
42682;SDS011;28293;50.930;3.464;2022-11-21T02:17:36;13.18;;;5.05;;
42682;SDS011;28293;50.930;3.464;2022-11-21T02:20:02;14.52;;;4.75;;
42682;SDS011;28293;50.930;3.464;2022-11-21T02:25:14;14.63;;;5.03;;
42682;SDS011;28293;50.930;3.464;2022-11-21T02:27:42;9.05;;;4.15;;
42682;SDS011;28293;50.930;3.464;2022-11-21T02:30:09;13.70;;;5.68;;
42682;SDS011;28293;50.930;3.464;2022-11-21T02:32:40;12.27;;;4.43;;
42682;SDS011;28293;50.930;3.464;2022-11-21T02:35:10;14.75;;;5.32;;
42682;SDS011;28293;50.930;3.464;2022-11-21T02:37:37;12.75;;;4.70;;
42682;SDS011;28293;50.930;3.464;2022-11-21T02:40:10;14.80;;;4.68;;
42682;SDS011;28293;50.930;3.464;2022-11-21T02:45:17;10.63;;;3.95;;
42682;SDS011;28293;50.930;3.464;2022-11-21T02:47:50;10.27;;;3.53;;
42682;SDS011;28293;50.930;3.464;2022-11-21T02:50:19;12.75;;;3.85;;
42682;SDS011;28293;50.930;3.464;2022-11-21T02:52:50;10.98;;;3.78;;
42682;SDS011;28293;50.930;3.464;2022-11-21T02:55:16;10.73;;;3.47;;
42682;SDS011;28293;50.930;3.464;2022-11-21T02:57:42;8.27;;;3.13;;
42682;SDS011;28293;50.930;3.464;2022-11-21T03:00:08;11.38;;;4.00;;
42682;SDS011;28293;50.930;3.464;2022-11-21T03:02:35;9.30;;;3.53;;
42682;SDS011;28293;50.930;3.464;2022-11-21T03:05:01;8.07;;;3.40;;
42682;SDS011;28293;50.930;3.464;2022-11-21T03:07:28;13.30;;;4.00;;
42682;SDS011;28293;50.930;3.464;2022-11-21T03:09:53;10.38;;;3.83;;
42682;SDS011;28293;50.930;3.464;2022-11-21T03:12:19;9.68;;;3.05;;
42682;SDS011;28293;50.930;3.464;2022-11-21T03:14:45;9.82;;;3.38;;
42682;SDS011;28293;50.930;3.464;2022-11-21T03:17:10;10.45;;;3.42;;
42682;SDS011;28293;50.930;3.464;2022-11-21T03:19:36;11.73;;;4.43;;
42682;SDS011;28293;50.930;3.464;2022-11-21T03:22:01;12.05;;;3.85;;
42682;SDS011;28293;50.930;3.464;2022-11-21T03:24:27;13.20;;;5.07;;
42682;SDS011;28293;50.930;3.464;2022-11-21T03:26:53;7.80;;;3.10;;
42682;SDS011;28293;50.930;3.464;2022-11-21T03:29:19;9.45;;;3.20;;
42682;SDS011;28293;50.930;3.464;2022-11-21T03:31:44;13.25;;;4.60;;
42682;SDS011;28293;50.930;3.464;2022-11-21T03:34:10;9.30;;;3.78;;
42682;SDS011;28293;50.930;3.464;2022-11-21T03:36:36;9.18;;;3.55;;
42682;SDS011;28293;50.930;3.464;2022-11-21T03:39:01;10.07;;;3.50;;
42682;SDS011;28293;50.930;3.464;2022-11-21T03:41:27;8.27;;;4.10;;
42682;SDS011;28293;50.930;3.464;2022-11-21T03:43:57;8.02;;;3.08;;
42682;SDS011;28293;50.930;3.464;2022-11-21T03:46:30;12.10;;;3.85;;
42682;SDS011;28293;50.930;3.464;2022-11-21T03:48:57;8.55;;;3.08;;
42682;SDS011;28293;50.930;3.464;2022-11-21T03:51:23;8.50;;;3.33;;
42682;SDS011;28293;50.930;3.464;2022-11-21T03:53:50;10.48;;;3.80;;
42682;SDS011;28293;50.930;3.464;2022-11-21T03:56:15;10.73;;;3.33;;
42682;SDS011;28293;50.930;3.464;2022-11-21T03:58:42;10.25;;;3.28;;
42682;SDS011;28293;50.930;3.464;2022-11-21T04:01:08;8.77;;;3.35;;
42682;SDS011;28293;50.930;3.464;2022-11-21T04:03:34;12.30;;;3.75;;
42682;SDS011;28293;50.930;3.464;2022-11-21T04:05:59;10.15;;;3.63;;
42682;SDS011;28293;50.930;3.464;2022-11-21T04:08:26;10.10;;;3.92;;
42682;SDS011;28293;50.930;3.464;2022-11-21T04:10:52;8.55;;;3.63;;
42682;SDS011;28293;50.930;3.464;2022-11-21T04:13:18;8.55;;;4.43;;
42682;SDS011;28293;50.930;3.464;2022-11-21T04:15:45;9.32;;;3.63;;
42682;SDS011;28293;50.930;3.464;2022-11-21T04:18:11;12.35;;;4.43;;
42682;SDS011;28293;50.930;3.464;2022-11-21T04:20:37;12.68;;;4.43;;
42682;SDS011;28293;50.930;3.464;2022-11-21T04:23:03;12.13;;;3.63;;
42682;SDS011;28293;50.930;3.464;2022-11-21T04:25:30;11.13;;;3.78;;
42682;SDS011;28293;50.930;3.464;2022-11-21T04:27:56;10.05;;;3.83;;
42682;SDS011;28293;50.930;3.464;2022-11-21T04:30:23;14.30;;;3.92;;
42682;SDS011;28293;50.930;3.464;2022-11-21T04:32:49;11.07;;;4.28;;
42682;SDS011;28293;50.930;3.464;2022-11-21T04:35:16;10.38;;;4.20;;
42682;SDS011;28293;50.930;3.464;2022-11-21T04:37:42;10.80;;;3.50;;
42682;SDS011;28293;50.930;3.464;2022-11-21T04:40:07;10.77;;;3.95;;
42682;SDS011;28293;50.930;3.464;2022-11-21T04:42:33;10.95;;;4.07;;
42682;SDS011;28293;50.930;3.464;2022-11-21T04:44:59;12.15;;;4.00;;
42682;SDS011;28293;50.930;3.464;2022-11-21T04:47:25;12.25;;;4.05;;
42682;SDS011;28293;50.930;3.464;2022-11-21T04:49:50;6.32;;;3.25;;
42682;SDS011;28293;50.930;3.464;2022-11-21T04:52:16;11.40;;;3.38;;
42682;SDS011;28293;50.930;3.464;2022-11-21T04:54:41;13.05;;;3.97;;
42682;SDS011;28293;50.930;3.464;2022-11-21T04:57:07;12.85;;;3.58;;
42682;SDS011;28293;50.930;3.464;2022-11-21T04:59:33;9.45;;;3.90;;
42682;SDS011;28293;50.930;3.464;2022-11-21T05:01:58;10.45;;;4.47;;
42682;SDS011;28293;50.930;3.464;2022-11-21T05:04:24;10.35;;;4.43;;
42682;SDS011;28293;50.930;3.464;2022-11-21T05:06:50;12.65;;;4.60;;
42682;SDS011;28293;50.930;3.464;2022-11-21T05:09:15;9.88;;;3.63;;
42682;SDS011;28293;50.930;3.464;2022-11-21T05:11:41;10.80;;;4.90;;
42682;SDS011;28293;50.930;3.464;2022-11-21T05:14:25;8.55;;;4.63;;
42682;SDS011;28293;50.930;3.464;2022-11-21T05:16:51;12.35;;;4.80;;
42682;SDS011;28293;50.930;3.464;2022-11-21T05:19:17;12.70;;;4.95;;
42682;SDS011;28293;50.930;3.464;2022-11-21T05:21:43;12.70;;;5.28;;
42682;SDS011;28293;50.930;3.464;2022-11-21T05:24:08;12.00;;;4.60;;
42682;SDS011;28293;50.930;3.464;2022-11-21T05:26:34;11.02;;;4.78;;
42682;SDS011;28293;50.930;3.464;2022-11-21T05:29:00;11.10;;;5.20;;
42682;SDS011;28293;50.930;3.464;2022-11-21T05:31:25;11.85;;;4.72;;
42682;SDS011;28293;50.930;3.464;2022-11-21T05:33:51;12.02;;;5.30;;
42682;SDS011;28293;50.930;3.464;2022-11-21T05:36:17;12.70;;;4.70;;
42682;SDS011;28293;50.930;3.464;2022-11-21T05:38:42;11.55;;;4.50;;
42682;SDS011;28293;50.930;3.464;2022-11-21T05:41:08;12.20;;;5.05;;
42682;SDS011;28293;50.930;3.464;2022-11-21T05:43:33;11.70;;;4.40;;
42682;SDS011;28293;50.930;3.464;2022-11-21T05:46:12;10.15;;;4.47;;
42682;SDS011;28293;50.930;3.464;2022-11-21T05:48:40;13.00;;;5.18;;
42682;SDS011;28293;50.930;3.464;2022-11-21T05:51:06;12.20;;;5.07;;
42682;SDS011;28293;50.930;3.464;2022-11-21T05:53:32;10.98;;;4.88;;
42682;SDS011;28293;50.930;3.464;2022-11-21T05:56:02;13.30;;;5.15;;
42682;SDS011;28293;50.930;3.464;2022-11-21T05:58:32;12.32;;;6.03;;
42682;SDS011;28293;50.930;3.464;2022-11-21T06:00:58;14.60;;;7.22;;
42682;SDS011;28293;50.930;3.464;2022-11-21T06:03:25;16.38;;;6.90;;
42682;SDS011;28293;50.930;3.464;2022-11-21T06:06:04;11.85;;;5.95;;
42682;SDS011;28293;50.930;3.464;2022-11-21T06:08:34;13.40;;;5.55;;
42682;SDS011;28293;50.930;3.464;2022-11-21T06:11:05;12.77;;;5.35;;
42682;SDS011;28293;50.930;3.464;2022-11-21T06:13:31;13.05;;;5.25;;
42682;SDS011;28293;50.930;3.464;2022-11-21T06:15:59;15.52;;;5.90;;
42682;SDS011;28293;50.930;3.464;2022-11-21T06:18:26;17.70;;;6.38;;
42682;SDS011;28293;50.930;3.464;2022-11-21T06:20:53;13.65;;;6.47;;
42682;SDS011;28293;50.930;3.464;2022-11-21T06:23:24;16.73;;;8.38;;
42682;SDS011;28293;50.930;3.464;2022-11-21T06:25:54;17.13;;;9.02;;
42682;SDS011;28293;50.930;3.464;2022-11-21T06:28:22;17.92;;;8.52;;
42682;SDS011;28293;50.930;3.464;2022-11-21T06:30:47;14.23;;;7.22;;
42682;SDS011;28293;50.930;3.464;2022-11-21T06:33:15;16.45;;;6.78;;
42682;SDS011;28293;50.930;3.464;2022-11-21T06:35:42;14.20;;;5.28;;
42682;SDS011;28293;50.930;3.464;2022-11-21T06:38:07;11.32;;;5.05;;
42682;SDS011;28293;50.930;3.464;2022-11-21T06:40:33;12.35;;;5.43;;
42682;SDS011;28293;50.930;3.464;2022-11-21T06:42:59;14.75;;;5.30;;
42682;SDS011;28293;50.930;3.464;2022-11-21T06:45:25;11.60;;;5.13;;
42682;SDS011;28293;50.930;3.464;2022-11-21T06:47:51;11.52;;;4.80;;
42682;SDS011;28293;50.930;3.464;2022-11-21T06:50:16;13.13;;;5.40;;
42682;SDS011;28293;50.930;3.464;2022-11-21T06:52:42;13.38;;;5.15;;
42682;SDS011;28293;50.930;3.464;2022-11-21T06:55:09;15.55;;;6.45;;
42682;SDS011;28293;50.930;3.464;2022-11-21T06:57:35;13.88;;;5.93;;
42682;SDS011;28293;50.930;3.464;2022-11-21T07:00:00;14.02;;;5.50;;
42682;SDS011;28293;50.930;3.464;2022-11-21T07:02:26;14.48;;;5.65;;
42682;SDS011;28293;50.930;3.464;2022-11-21T07:04:52;13.30;;;5.60;;
42682;SDS011;28293;50.930;3.464;2022-11-21T07:07:18;15.32;;;5.82;;
42682;SDS011;28293;50.930;3.464;2022-11-21T07:09:43;14.10;;;5.40;;
42682;SDS011;28293;50.930;3.464;2022-11-21T07:12:11;13.68;;;5.68;;
42682;SDS011;28293;50.930;3.464;2022-11-21T07:14:55;12.80;;;5.63;;
42682;SDS011;28293;50.930;3.464;2022-11-21T07:17:21;13.48;;;5.07;;
42682;SDS011;28293;50.930;3.464;2022-11-21T07:19:46;15.30;;;4.97;;
42682;SDS011;28293;50.930;3.464;2022-11-21T07:22:12;12.38;;;5.72;;
42682;SDS011;28293;50.930;3.464;2022-11-21T07:24:38;14.25;;;5.35;;
42682;SDS011;28293;50.930;3.464;2022-11-21T07:27:03;14.73;;;5.28;;
42682;SDS011;28293;50.930;3.464;2022-11-21T07:29:29;18.42;;;5.53;;
42682;SDS011;28293;50.930;3.464;2022-11-21T07:31:54;15.85;;;5.82;;
42682;SDS011;28293;50.930;3.464;2022-11-21T07:34:20;14.13;;;5.25;;
42682;SDS011;28293;50.930;3.464;2022-11-21T07:36:46;17.27;;;5.93;;
42682;SDS011;28293;50.930;3.464;2022-11-21T07:39:11;15.48;;;5.35;;
42682;SDS011;28293;50.930;3.464;2022-11-21T07:41:37;16.67;;;6.05;;
42682;SDS011;28293;50.930;3.464;2022-11-21T07:44:03;16.92;;;5.60;;
42682;SDS011;28293;50.930;3.464;2022-11-21T07:46:28;13.95;;;5.90;;
42682;SDS011;28293;50.930;3.464;2022-11-21T07:48:54;15.93;;;6.03;;
42682;SDS011;28293;50.930;3.464;2022-11-21T07:51:19;19.17;;;5.72;;
42682;SDS011;28293;50.930;3.464;2022-11-21T07:53:45;17.40;;;5.93;;
42682;SDS011;28293;50.930;3.464;2022-11-21T07:56:11;20.58;;;6.22;;
42682;SDS011;28293;50.930;3.464;2022-11-21T07:58:36;18.98;;;6.05;;
42682;SDS011;28293;50.930;3.464;2022-11-21T08:01:03;16.17;;;5.78;;
42682;SDS011;28293;50.930;3.464;2022-11-21T08:03:30;17.00;;;5.90;;
42682;SDS011;28293;50.930;3.464;2022-11-21T08:05:56;18.10;;;6.43;;
42682;SDS011;28293;50.930;3.464;2022-11-21T08:08:24;24.20;;;8.20;;
42682;SDS011;28293;50.930;3.464;2022-11-21T08:10:50;22.45;;;7.95;;
42682;SDS011;28293;50.930;3.464;2022-11-21T08:13:16;29.33;;;6.30;;
42682;SDS011;28293;50.930;3.464;2022-11-21T08:15:41;24.85;;;7.75;;
42682;SDS011;28293;50.930;3.464;2022-11-21T08:18:16;22.40;;;7.95;;
42682;SDS011;28293;50.930;3.464;2022-11-21T08:20:45;20.60;;;7.68;;
42682;SDS011;28293;50.930;3.464;2022-11-21T08:23:11;19.88;;;7.05;;
42682;SDS011;28293;50.930;3.464;2022-11-21T08:25:37;18.17;;;7.35;;
42682;SDS011;28293;50.930;3.464;2022-11-21T08:28:04;21.52;;;7.00;;
42682;SDS011;28293;50.930;3.464;2022-11-21T08:30:31;19.98;;;6.82;;
42682;SDS011;28293;50.930;3.464;2022-11-21T08:32:57;26.20;;;7.32;;
42682;SDS011;28293;50.930;3.464;2022-11-21T08:35:24;25.30;;;6.82;;
42682;SDS011;28293;50.930;3.464;2022-11-21T08:37:56;24.55;;;6.57;;
42682;SDS011;28293;50.930;3.464;2022-11-21T08:40:23;24.85;;;7.38;;
42682;SDS011;28293;50.930;3.464;2022-11-21T08:43:02;21.70;;;7.80;;
42682;SDS011;28293;50.930;3.464;2022-11-21T08:45:30;23.80;;;9.55;;
42682;SDS011;28293;50.930;3.464;2022-11-21T08:47:57;25.08;;;8.52;;
42682;SDS011;28293;50.930;3.464;2022-11-21T08:50:23;26.42;;;8.45;;
42682;SDS011;28293;50.930;3.464;2022-11-21T08:52:50;30.83;;;8.23;;
42682;SDS011;28293;50.930;3.464;2022-11-21T08:55:16;21.60;;;6.93;;
42682;SDS011;28293;50.930;3.464;2022-11-21T08:57:41;20.75;;;8.57;;
42682;SDS011;28293;50.930;3.464;2022-11-21T09:00:08;24.45;;;7.82;;
42682;SDS011;28293;50.930;3.464;2022-11-21T09:02:36;19.80;;;8.15;;
42682;SDS011;28293;50.930;3.464;2022-11-21T09:05:02;24.38;;;8.35;;
42682;SDS011;28293;50.930;3.464;2022-11-21T09:07:28;22.85;;;7.25;;
42682;SDS011;28293;50.930;3.464;2022-11-21T09:09:54;19.10;;;8.30;;
42682;SDS011;28293;50.930;3.464;2022-11-21T09:12:19;20.25;;;7.97;;
42682;SDS011;28293;50.930;3.464;2022-11-21T09:14:45;19.45;;;7.97;;
42682;SDS011;28293;50.930;3.464;2022-11-21T09:17:29;19.27;;;8.75;;
42682;SDS011;28293;50.930;3.464;2022-11-21T09:20:13;18.55;;;7.68;;
42682;SDS011;28293;50.930;3.464;2022-11-21T09:22:39;19.95;;;9.52;;
42682;SDS011;28293;50.930;3.464;2022-11-21T09:25:05;24.17;;;9.05;;
42682;SDS011;28293;50.930;3.464;2022-11-21T09:27:31;21.85;;;9.05;;
42682;SDS011;28293;50.930;3.464;2022-11-21T09:29:56;28.67;;;10.13;;
42682;SDS011;28293;50.930;3.464;2022-11-21T09:32:22;19.55;;;9.30;;
42682;SDS011;28293;50.930;3.464;2022-11-21T09:34:48;18.58;;;8.98;;
42682;SDS011;28293;50.930;3.464;2022-11-21T09:37:14;20.48;;;9.15;;
42682;SDS011;28293;50.930;3.464;2022-11-21T09:39:39;19.48;;;8.93;;
42682;SDS011;28293;50.930;3.464;2022-11-21T09:45:03;22.48;;;9.30;;
42682;SDS011;28293;50.930;3.464;2022-11-21T09:47:49;20.02;;;9.13;;
42682;SDS011;28293;50.930;3.464;2022-11-21T09:50:33;17.65;;;8.82;;
42682;SDS011;28293;50.930;3.464;2022-11-21T09:53:13;22.30;;;10.48;;
42682;SDS011;28293;50.930;3.464;2022-11-21T09:55:51;21.23;;;8.60;;
42682;SDS011;28293;50.930;3.464;2022-11-21T09:58:24;18.17;;;8.50;;
42682;SDS011;28293;50.930;3.464;2022-11-21T10:00:52;20.27;;;8.65;;
42682;SDS011;28293;50.930;3.464;2022-11-21T10:03:19;19.00;;;8.60;;
42682;SDS011;28293;50.930;3.464;2022-11-21T10:05:52;23.88;;;9.57;;
42682;SDS011;28293;50.930;3.464;2022-11-21T10:11:17;21.73;;;12.45;;
42682;SDS011;28293;50.930;3.464;2022-11-21T10:13:52;21.65;;;11.77;;
42682;SDS011;28293;50.930;3.464;2022-11-21T10:16:30;24.50;;;12.75;;
42682;SDS011;28293;50.930;3.464;2022-11-21T10:19:24;22.77;;;12.88;;
42682;SDS011;28293;50.930;3.464;2022-11-21T10:25:27;22.30;;;13.75;;
42682;SDS011;28293;50.930;3.464;2022-11-21T10:30:44;23.30;;;11.93;;
42682;SDS011;28293;50.930;3.464;2022-11-21T10:33:13;20.83;;;12.07;;
42682;SDS011;28293;50.930;3.464;2022-11-21T10:35:47;22.95;;;12.20;;
42682;SDS011;28293;50.930;3.464;2022-11-21T10:38:21;18.77;;;11.73;;
42682;SDS011;28293;50.930;3.464;2022-11-21T10:41:04;21.92;;;11.52;;
42682;SDS011;28293;50.930;3.464;2022-11-21T10:43:54;19.00;;;12.13;;
42682;SDS011;28293;50.930;3.464;2022-11-21T10:46:54;18.85;;;11.52;;
42682;SDS011;28293;50.930;3.464;2022-11-21T10:49:20;19.13;;;12.20;;
42682;SDS011;28293;50.930;3.464;2022-11-21T10:51:55;19.80;;;11.80;;
42682;SDS011;28293;50.930;3.464;2022-11-21T10:54:31;17.65;;;11.30;;
42682;SDS011;28293;50.930;3.464;2022-11-21T10:57:06;19.17;;;11.50;;
42682;SDS011;28293;50.930;3.464;2022-11-21T10:59:35;16.88;;;11.07;;
42682;SDS011;28293;50.930;3.464;2022-11-21T11:02:09;21.95;;;12.38;;
42682;SDS011;28293;50.930;3.464;2022-11-21T11:04:47;17.95;;;11.82;;
42682;SDS011;28293;50.930;3.464;2022-11-21T11:07:20;19.35;;;12.25;;
42682;SDS011;28293;50.930;3.464;2022-11-21T11:09:47;21.50;;;12.32;;
42682;SDS011;28293;50.930;3.464;2022-11-21T11:12:27;20.60;;;12.07;;
42682;SDS011;28293;50.930;3.464;2022-11-21T11:15:24;18.00;;;11.65;;
42682;SDS011;28293;50.930;3.464;2022-11-21T11:25:50;20.58;;;11.75;;
42682;SDS011;28293;50.930;3.464;2022-11-21T11:28:18;18.50;;;11.50;;
42682;SDS011;28293;50.930;3.464;2022-11-21T11:30:44;22.10;;;12.20;;
42682;SDS011;28293;50.930;3.464;2022-11-21T11:36:25;23.02;;;12.55;;
42682;SDS011;28293;50.930;3.464;2022-11-21T11:39:21;23.23;;;11.88;;
42682;SDS011;28293;50.930;3.464;2022-11-21T11:42:07;22.42;;;12.95;;
42682;SDS011;28293;50.930;3.464;2022-11-21T11:48:08;24.02;;;11.82;;
42682;SDS011;28293;50.930;3.464;2022-11-21T11:50:43;25.08;;;13.50;;
42682;SDS011;28293;50.930;3.464;2022-11-21T11:59:01;22.73;;;11.93;;
42682;SDS011;28293;50.930;3.464;2022-11-21T12:01:38;24.45;;;12.93;;
42682;SDS011;28293;50.930;3.464;2022-11-21T12:04:24;30.95;;;13.55;;
42682;SDS011;28293;50.930;3.464;2022-11-21T12:12:01;26.70;;;13.25;;
42682;SDS011;28293;50.930;3.464;2022-11-21T12:14:57;27.27;;;13.75;;
42682;SDS011;28293;50.930;3.464;2022-11-21T12:29:19;31.48;;;16.17;;
42682;SDS011;28293;50.930;3.464;2022-11-21T12:48:56;24.95;;;13.93;;
42682;SDS011;28293;50.930;3.464;2022-11-21T12:52:04;26.63;;;13.95;;
42682;SDS011;28293;50.930;3.464;2022-11-21T13:04:04;24.63;;;12.18;;
42682;SDS011;28293;50.930;3.464;2022-11-21T13:06:41;25.83;;;11.75;;
42682;SDS011;28293;50.930;3.464;2022-11-21T13:09:11;27.27;;;10.35;;
42682;SDS011;28293;50.930;3.464;2022-11-21T13:11:44;29.85;;;9.75;;
42682;SDS011;28293;50.930;3.464;2022-11-21T13:14:28;21.60;;;8.43;;
42682;SDS011;28293;50.930;3.464;2022-11-21T13:17:11;19.75;;;8.45;;
42682;SDS011;28293;50.930;3.464;2022-11-21T13:19:43;19.15;;;8.00;;
42682;SDS011;28293;50.930;3.464;2022-11-21T13:27:34;24.58;;;7.50;;
42682;SDS011;28293;50.930;3.464;2022-11-21T13:45:40;19.77;;;7.03;;
42682;SDS011;28293;50.930;3.464;2022-11-21T13:55:58;16.27;;;6.40;;
42682;SDS011;28293;50.930;3.464;2022-11-21T13:59:21;15.93;;;6.38;;
42682;SDS011;28293;50.930;3.464;2022-11-21T14:08:26;17.05;;;5.97;;
42682;SDS011;28293;50.930;3.464;2022-11-21T14:10:54;22.08;;;6.28;;
42682;SDS011;28293;50.930;3.464;2022-11-21T14:13:27;18.65;;;6.07;;
42682;SDS011;28293;50.930;3.464;2022-11-21T14:18:30;14.43;;;6.03;;
42682;SDS011;28293;50.930;3.464;2022-11-21T14:20:56;20.25;;;6.80;;
42682;SDS011;28293;50.930;3.464;2022-11-21T14:23:25;19.92;;;6.78;;
42682;SDS011;28293;50.930;3.464;2022-11-21T14:25:54;20.02;;;7.00;;
42682;SDS011;28293;50.930;3.464;2022-11-21T14:28:32;16.30;;;6.53;;
42682;SDS011;28293;50.930;3.464;2022-11-21T14:31:06;15.75;;;7.10;;
42682;SDS011;28293;50.930;3.464;2022-11-21T14:36:07;17.65;;;6.57;;
42682;SDS011;28293;50.930;3.464;2022-11-21T14:38:45;18.42;;;7.40;;
42682;SDS011;28293;50.930;3.464;2022-11-21T14:46:23;21.40;;;8.40;;
42682;SDS011;28293;50.930;3.464;2022-11-21T14:48:50;19.17;;;7.47;;
42682;SDS011;28293;50.930;3.464;2022-11-21T14:51:18;19.85;;;10.70;;
42682;SDS011;28293;50.930;3.464;2022-11-21T14:53:47;20.92;;;7.88;;
42682;SDS011;28293;50.930;3.464;2022-11-21T14:56:25;20.45;;;7.60;;
42682;SDS011;28293;50.930;3.464;2022-11-21T14:58:53;20.45;;;8.57;;
42682;SDS011;28293;50.930;3.464;2022-11-21T15:01:22;25.35;;;10.52;;
42682;SDS011;28293;50.930;3.464;2022-11-21T15:03:53;17.27;;;9.07;;
42682;SDS011;28293;50.930;3.464;2022-11-21T15:06:20;21.92;;;7.47;;
42682;SDS011;28293;50.930;3.464;2022-11-21T15:08:46;19.55;;;12.18;;
42682;SDS011;28293;50.930;3.464;2022-11-21T15:11:12;22.35;;;8.45;;
42682;SDS011;28293;50.930;3.464;2022-11-21T15:13:40;19.50;;;8.90;;
42682;SDS011;28293;50.930;3.464;2022-11-21T15:16:10;20.00;;;8.07;;
42682;SDS011;28293;50.930;3.464;2022-11-21T15:18:38;21.00;;;8.32;;
42682;SDS011;28293;50.930;3.464;2022-11-21T15:21:05;19.70;;;8.18;;
42682;SDS011;28293;50.930;3.464;2022-11-21T15:23:35;21.48;;;7.90;;
42682;SDS011;28293;50.930;3.464;2022-11-21T15:26:04;19.30;;;8.40;;
42682;SDS011;28293;50.930;3.464;2022-11-21T15:28:30;26.25;;;11.35;;
42682;SDS011;28293;50.930;3.464;2022-11-21T15:31:19;18.83;;;8.95;;
42682;SDS011;28293;50.930;3.464;2022-11-21T15:37:05;27.50;;;10.88;;
42682;SDS011;28293;50.930;3.464;2022-11-21T15:39:45;25.75;;;10.55;;
42682;SDS011;28293;50.930;3.464;2022-11-21T15:45:02;19.13;;;8.77;;
42682;SDS011;28293;50.930;3.464;2022-11-21T15:47:45;18.73;;;8.93;;
42682;SDS011;28293;50.930;3.464;2022-11-21T15:50:11;23.33;;;9.23;;
42682;SDS011;28293;50.930;3.464;2022-11-21T15:52:46;20.88;;;8.25;;
42682;SDS011;28293;50.930;3.464;2022-11-21T15:55:16;20.73;;;8.77;;
42682;SDS011;28293;50.930;3.464;2022-11-21T15:57:47;23.42;;;8.95;;
42682;SDS011;28293;50.930;3.464;2022-11-21T16:00:12;21.48;;;8.88;;
42682;SDS011;28293;50.930;3.464;2022-11-21T16:02:38;23.55;;;8.73;;
42682;SDS011;28293;50.930;3.464;2022-11-21T16:05:04;24.88;;;8.05;;
42682;SDS011;28293;50.930;3.464;2022-11-21T16:07:30;20.02;;;7.45;;
42682;SDS011;28293;50.930;3.464;2022-11-21T16:09:55;22.98;;;10.20;;
42682;SDS011;28293;50.930;3.464;2022-11-21T16:12:21;22.05;;;11.45;;
42682;SDS011;28293;50.930;3.464;2022-11-21T16:14:47;22.27;;;7.72;;
42682;SDS011;28293;50.930;3.464;2022-11-21T16:17:12;23.65;;;9.85;;
42682;SDS011;28293;50.930;3.464;2022-11-21T16:19:39;19.20;;;8.30;;
42682;SDS011;28293;50.930;3.464;2022-11-21T16:22:05;21.60;;;7.15;;
42682;SDS011;28293;50.930;3.464;2022-11-21T16:24:30;17.55;;;7.03;;
42682;SDS011;28293;50.930;3.464;2022-11-21T16:26:56;21.88;;;9.23;;
42682;SDS011;28293;50.930;3.464;2022-11-21T16:29:22;26.50;;;10.10;;
42682;SDS011;28293;50.930;3.464;2022-11-21T16:31:48;20.20;;;7.72;;
42682;SDS011;28293;50.930;3.464;2022-11-21T16:34:18;22.75;;;6.93;;
42682;SDS011;28293;50.930;3.464;2022-11-21T16:36:44;17.45;;;7.07;;
42682;SDS011;28293;50.930;3.464;2022-11-21T16:39:09;18.08;;;6.88;;
42682;SDS011;28293;50.930;3.464;2022-11-21T16:41:35;18.15;;;6.57;;
42682;SDS011;28293;50.930;3.464;2022-11-21T16:44:00;22.15;;;8.10;;
42682;SDS011;28293;50.930;3.464;2022-11-21T16:46:26;20.23;;;7.25;;
42682;SDS011;28293;50.930;3.464;2022-11-21T16:49:01;18.65;;;7.28;;
42682;SDS011;28293;50.930;3.464;2022-11-21T16:51:28;22.10;;;7.22;;
42682;SDS011;28293;50.930;3.464;2022-11-21T16:53:54;20.85;;;7.32;;
42682;SDS011;28293;50.930;3.464;2022-11-21T16:56:21;22.58;;;6.65;;
42682;SDS011;28293;50.930;3.464;2022-11-21T16:58:46;17.15;;;6.97;;
42682;SDS011;28293;50.930;3.464;2022-11-21T17:01:16;24.00;;;7.47;;
42682;SDS011;28293;50.930;3.464;2022-11-21T17:03:49;23.05;;;8.95;;
42682;SDS011;28293;50.930;3.464;2022-11-21T17:06:17;22.83;;;6.95;;
42682;SDS011;28293;50.930;3.464;2022-11-21T17:08:51;13.88;;;5.55;;